Terminal Aerodrome Forecast
Issued by NWS

Home | Current Version | Previous Version | Text Only | Print | Product List | Glossary On
Versions: 1 2 3 4 5 6 7 8 9 10 11 12 13 14 15 16 17 18 19 20 21
520
FTUS46 KMTR 201459 AAA
TAFOAK
TAF AMD
KOAK 201459Z 2015/2118 VRB05KT P6SM BKN017
     FM201700 26006KT P6SM SCT017 SCT050
      TEMPO 2017/2019 BKN017
     FM202100 28015KT P6SM SKC
     FM210300 28009KT P6SM SKC
     FM210900 28004KT P6SM SKC=

USA.gov is the U.S. government's official web portal to all federal, state and local government web resources and services.